createdAt,value
2018-07-31T00:03:57.266Z,22.40
2018-07-31T00:08:51.604Z,22.30
2018-07-31T00:13:44.690Z,22.30
2018-07-31T00:18:37.696Z,22.20
2018-07-31T00:23:30.745Z,22.10
2018-07-31T00:28:23.788Z,22.00
2018-07-31T00:33:16.821Z,21.80
2018-07-31T00:38:09.860Z,21.90
2018-07-31T00:43:02.932Z,21.80
2018-07-31T00:47:55.950Z,21.70
2018-07-31T00:52:48.981Z,21.70
2018-07-31T00:57:41.985Z,21.60
2018-07-31T01:07:27.970Z,21.40
2018-07-31T01:12:20.997Z,21.40
2018-07-31T01:22:06.983Z,21.30
2018-07-31T01:26:59.973Z,21.20
2018-07-31T01:31:52.996Z,21.20
2018-07-31T01:36:47.046Z,21.10
2018-07-31T01:41:40.539Z,21.10
2018-07-31T01:46:33.562Z,21.00
2018-07-31T01:51:26.581Z,21.00
2018-07-31T02:01:12.572Z,20.90
2018-07-31T02:06:05.657Z,20.90
2018-07-31T02:10:58.644Z,20.90
2018-07-31T02:15:51.666Z,20.80
2018-07-31T02:20:44.711Z,20.70
2018-07-31T02:25:38.134Z,20.60
2018-07-31T02:30:31.140Z,20.60
2018-07-31T02:35:24.163Z,20.60
2018-07-31T02:40:17.183Z,20.50
2018-07-31T02:45:12.624Z,20.50
2018-07-31T02:50:06.829Z,20.40
2018-07-31T02:54:59.841Z,20.40
2018-07-31T02:59:52.873Z,20.30
2018-07-31T03:04:45.948Z,20.30
2018-07-31T03:09:38.956Z,20.30
2018-07-31T03:14:32.013Z,20.20
2018-07-31T03:19:25.054Z,20.20
2018-07-31T03:24:18.068Z,20.00
2018-07-31T03:29:11.126Z,20.10
2018-07-31T03:34:04.300Z,20.00
2018-07-31T03:38:57.304Z,20.00
2018-07-31T03:43:50.319Z,19.90
2018-07-31T03:48:43.335Z,20.00
2018-07-31T03:53:36.337Z,20.00
2018-07-31T03:58:29.336Z,19.90
2018-07-31T04:03:22.329Z,19.90
2018-07-31T04:08:15.340Z,19.90
2018-07-31T04:13:08.346Z,20.00
2018-07-31T04:18:01.360Z,20.00
2018-07-31T04:22:54.415Z,20.00
2018-07-31T04:27:47.454Z,20.50
2018-07-31T04:32:40.526Z,21.40
2018-07-31T04:37:33.613Z,22.60
2018-07-31T04:42:26.666Z,23.80
2018-07-31T04:47:19.664Z,24.90
2018-07-31T04:52:12.664Z,25.90
2018-07-31T04:57:05.689Z,26.30
2018-07-31T05:01:58.768Z,26.80
2018-07-31T05:06:51.820Z,27.60
2018-07-31T05:11:44.932Z,28.10
2018-07-31T05:21:30.975Z,29.90
2018-07-31T05:26:24.047Z,30.30
2018-07-31T05:31:17.083Z,31.00
2018-07-31T05:36:10.120Z,31.30
2018-07-31T05:41:03.160Z,32.10
2018-07-31T05:45:56.164Z,32.60
2018-07-31T05:50:49.196Z,32.60
2018-07-31T05:55:42.189Z,32.80
2018-07-31T06:00:35.230Z,32.80
2018-07-31T06:10:21.433Z,32.70
2018-07-31T06:15:14.614Z,32.60
2018-07-31T06:20:14.417Z,32.70
2018-07-31T06:25:08.125Z,32.50
2018-07-31T06:30:01.392Z,32.20
2018-07-31T06:34:54.576Z,32.10
2018-07-31T06:39:47.593Z,31.50
2018-07-31T06:44:41.737Z,31.00
2018-07-31T06:49:35.280Z,30.30
2018-07-31T06:54:28.804Z,30.40
2018-07-31T06:59:21.890Z,30.10
2018-07-31T07:04:15.015Z,30.10
2018-07-31T07:09:10.084Z,29.90
2018-07-31T07:14:03.199Z,29.90
2018-07-31T07:19:15.738Z,30.00
2018-07-31T07:24:08.852Z,30.00
2018-07-31T07:29:02.081Z,29.90
2018-07-31T07:33:55.177Z,29.90
2018-07-31T07:43:47.196Z,30.00
2018-07-31T07:48:40.498Z,30.10
2018-07-31T07:53:33.660Z,30.00
2018-07-31T07:58:26.715Z,29.90
2018-07-31T08:03:19.823Z,30.20
2018-07-31T08:08:12.907Z,30.50
2018-07-31T08:13:06.224Z,30.50
2018-07-31T08:22:53.160Z,30.30
2018-07-31T08:27:46.697Z,30.10
2018-07-31T08:32:39.737Z,30.40
2018-07-31T08:42:26.664Z,30.70
2018-07-31T08:47:20.645Z,30.90
2018-07-31T08:52:14.589Z,31.00
2018-07-31T08:57:07.696Z,31.20
2018-07-31T09:02:00.813Z,31.30
2018-07-31T09:06:53.980Z,31.40
2018-07-31T09:11:47.080Z,31.50
2018-07-31T09:16:40.220Z,31.50
2018-07-31T09:21:33.352Z,31.50
2018-07-31T09:26:27.048Z,31.50
2018-07-31T09:31:22.208Z,31.60
2018-07-31T09:36:15.764Z,31.70
2018-07-31T09:41:12.932Z,31.80
2018-07-31T09:46:07.722Z,32.00
2018-07-31T09:51:00.944Z,32.20
2018-07-31T10:00:52.773Z,32.50
2018-07-31T10:05:46.028Z,32.60
2018-07-31T10:10:39.113Z,32.80
2018-07-31T10:15:32.216Z,33.00
2018-07-31T10:30:11.868Z,33.50
2018-07-31T10:39:58.391Z,33.60
2018-07-31T10:44:51.545Z,33.70
2018-07-31T10:49:44.722Z,34.00
2018-07-31T10:54:37.813Z,34.30
2018-07-31T10:59:31.136Z,34.40
2018-07-31T11:04:24.480Z,34.40
2018-07-31T11:09:17.705Z,34.40
2018-07-31T11:14:11.002Z,34.20
2018-07-31T11:19:04.280Z,34.40
2018-07-31T11:23:57.344Z,34.80
2018-07-31T11:28:50.582Z,34.90
2018-07-31T11:33:44.684Z,35.00
2018-07-31T11:38:37.761Z,35.30
2018-07-31T11:43:31.271Z,35.60
2018-07-31T11:48:27.583Z,35.90
2018-07-31T11:53:21.321Z,36.00
2018-07-31T11:58:14.414Z,36.10
2018-07-31T12:03:07.545Z,36.00
2018-07-31T12:12:53.886Z,36.00
2018-07-31T12:17:47.306Z,35.90
2018-07-31T12:22:40.459Z,35.40
2018-07-31T12:27:33.512Z,35.20
2018-07-31T12:37:20.004Z,35.10
2018-07-31T12:42:13.198Z,35.10
2018-07-31T12:47:06.375Z,35.00
2018-07-31T12:51:59.544Z,35.10
2018-07-31T12:56:52.792Z,34.80
2018-07-31T13:01:45.871Z,34.90
2018-07-31T13:06:46.958Z,35.30
2018-07-31T13:11:40.354Z,35.40
2018-07-31T13:16:34.668Z,35.40
2018-07-31T13:21:27.884Z,34.80
2018-07-31T13:26:21.127Z,34.60
2018-07-31T13:31:14.396Z,34.90
2018-07-31T13:36:12.913Z,34.80
2018-07-31T13:41:07.865Z,35.00
2018-07-31T13:46:01.653Z,34.90
2018-07-31T13:50:54.756Z,34.40
2018-07-31T13:55:47.955Z,34.30
2018-07-31T14:00:41.186Z,34.20
2018-07-31T14:05:35.030Z,34.50
2018-07-31T14:10:28.163Z,34.70
2018-07-31T14:15:21.432Z,35.00
2018-07-31T14:20:14.653Z,35.20
2018-07-31T14:25:07.943Z,35.30
2018-07-31T14:30:01.305Z,35.40
2018-07-31T14:34:54.428Z,35.50
2018-07-31T14:39:47.812Z,35.50
2018-07-31T14:44:41.345Z,35.40
2018-07-31T14:49:34.525Z,35.20
2018-07-31T14:54:27.951Z,35.20
2018-07-31T14:59:25.067Z,35.10
2018-07-31T15:04:18.072Z,35.10
2018-07-31T15:09:11.260Z,35.20
2018-07-31T15:14:04.788Z,35.30
2018-07-31T15:18:57.824Z,34.90
2018-07-31T15:23:50.799Z,34.30
2018-07-31T15:28:43.839Z,33.90
2018-07-31T15:33:36.889Z,33.80
2018-07-31T15:38:29.920Z,33.70
2018-07-31T15:43:23.045Z,33.70
2018-07-31T15:48:16.086Z,33.80
2018-07-31T15:53:10.224Z,33.80
2018-07-31T15:58:03.357Z,33.90
2018-07-31T16:02:56.403Z,33.90
2018-07-31T16:07:49.400Z,34.00
2018-07-31T16:12:42.537Z,34.20
2018-07-31T16:17:35.612Z,34.40
2018-07-31T16:22:29.359Z,34.40
2018-07-31T16:27:22.669Z,34.60
2018-07-31T16:32:15.827Z,34.40
2018-07-31T16:37:08.911Z,34.40
2018-07-31T16:42:01.953Z,34.30
2018-07-31T16:46:54.952Z,34.20
2018-07-31T16:51:48.035Z,34.20
2018-07-31T17:01:34.121Z,33.90
2018-07-31T17:06:27.193Z,33.90
2018-07-31T17:11:20.195Z,34.00
2018-07-31T17:16:13.228Z,34.00
2018-07-31T17:21:06.666Z,34.00
2018-07-31T17:25:59.680Z,33.80
2018-07-31T17:30:52.724Z,33.80
2018-07-31T17:35:45.796Z,33.80
2018-07-31T17:40:38.840Z,33.80
2018-07-31T17:45:31.857Z,33.70
2018-07-31T17:50:24.892Z,33.60
2018-07-31T17:55:17.938Z,33.50
2018-07-31T18:05:04.085Z,33.20
2018-07-31T18:09:57.129Z,33.10
2018-07-31T18:14:50.237Z,32.90
2018-07-31T18:19:43.204Z,32.90
2018-07-31T18:24:36.229Z,32.70
2018-07-31T18:29:29.244Z,32.60
2018-07-31T18:34:22.304Z,32.50
2018-07-31T18:39:15.336Z,32.40
2018-07-31T18:44:09.102Z,32.20
2018-07-31T18:49:02.200Z,32.00
2018-07-31T18:53:55.222Z,31.70
2018-07-31T18:58:48.247Z,31.40
2018-07-31T19:03:41.252Z,31.20
2018-07-31T19:08:34.299Z,30.90
2018-07-31T19:13:27.360Z,30.70
2018-07-31T19:18:20.437Z,30.40
2018-07-31T19:23:13.472Z,30.20
2018-07-31T19:28:06.581Z,29.90
2018-07-31T19:32:59.654Z,29.80
2018-07-31T19:37:52.653Z,29.70
2018-07-31T19:42:45.665Z,29.50
2018-07-31T19:47:38.668Z,29.30
2018-07-31T19:52:31.676Z,29.30
2018-07-31T19:57:24.793Z,29.10
2018-07-31T20:02:17.877Z,29.00
2018-07-31T20:07:10.881Z,29.00
2018-07-31T20:12:03.980Z,28.90
2018-07-31T20:16:57.010Z,28.70
2018-07-31T20:21:50.029Z,28.70
2018-07-31T20:26:43.157Z,28.60
2018-07-31T20:31:36.193Z,28.40
2018-07-31T20:36:29.201Z,28.30
2018-07-31T20:41:22.296Z,28.20
2018-07-31T20:46:15.585Z,28.10
2018-07-31T20:51:08.625Z,28.00
2018-07-31T20:56:01.628Z,27.90
2018-07-31T21:00:54.752Z,27.80
2018-07-31T21:05:47.806Z,27.70
2018-07-31T21:10:40.828Z,27.60
2018-07-31T21:15:33.873Z,27.50
2018-07-31T21:20:26.920Z,27.40
2018-07-31T21:25:19.997Z,27.30
2018-07-31T21:30:12.993Z,27.30
2018-07-31T21:35:05.987Z,27.10
2018-07-31T21:39:59.016Z,27.00
2018-07-31T21:44:52.044Z,26.90
2018-07-31T21:54:38.368Z,26.70
2018-07-31T21:59:31.453Z,26.60
2018-07-31T22:04:24.442Z,26.50
2018-07-31T22:09:22.000Z,26.40
2018-07-31T22:14:15.020Z,26.30
2018-07-31T22:19:08.040Z,26.30
2018-07-31T22:28:54.000Z,26.10
2018-07-31T22:33:47.018Z,26.10
2018-07-31T22:38:40.024Z,26.00
2018-07-31T22:43:33.168Z,26.00
2018-07-31T22:48:26.184Z,25.80
2018-07-31T22:53:19.225Z,25.80
2018-07-31T22:58:12.252Z,25.70
2018-07-31T23:03:05.331Z,25.60
2018-07-31T23:07:58.392Z,25.50
2018-07-31T23:12:51.416Z,25.50
2018-07-31T23:17:44.499Z,25.40
2018-07-31T23:22:43.497Z,25.40
2018-07-31T23:27:37.064Z,25.40
2018-07-31T23:32:30.085Z,25.30
2018-07-31T23:37:23.090Z,25.20
2018-07-31T23:42:16.101Z,25.20
2018-07-31T23:47:09.116Z,25.10
2018-07-31T23:52:02.188Z,25.10
2018-07-31T23:56:55.188Z,25.10
